ISABELLA DAM (ISB)

Elevation: 2635' · KERN R basin · Operator: US Army Corps of Engineers

Provisional data, subject to change.
Query executed Thursday at 6:35:18   clock

Select a sensor type for a plot of data.
Note: Reservoir Flows are daily averages.

Earlier

Date RES ELE    STORAGE    RES CHG    TOC STO    ABV TOC    OUTFLOW    INFLOW    FNF    PPT INC    PPTINC4    TEMP MN    TEMP MX    WINDLEN    EVP PAN   
 FEET   AF   AF   AF   AF   CFS   CFS   CFS   INCHES   INCHES   DEG F   DEG F   MILES   INCHES  
08/19/2014 2533.80 55753 -277 343460 -287707 256 193 193 0.00 0.00 20 33 145 0.34
08/20/2014 2533.80 55560 -193 342530 -286970 227 191 191 0.00 0.00 17 34 124 0.32
08/21/2014 2533.70 55423 -137 341590 -286167 194 189 189 0.00 0.00 18 34 116 0.32
08/22/2014 2533.60 55258 -165 340650 -285392 187 142 142 0.00 0.00 21 34 132 0.33
08/23/2014 2533.60 55148 -110 339720 -284572 175 163 163 0.00 0.00 19 33 166 0.35
08/24/2014 2533.50 55011 -137 338780 -283769 175 139 139 0.00 0.00 17 34 129 0.33
08/25/2014 2533.50 54848 -163 337850 -283002 171 123 123 0.00 0.00 18 33 135 0.34
08/26/2014 2533.40 54684 -164 336910 -282226 166 120 120 0.00 0.00 17 33 142 0.33
08/27/2014 2533.40 54548 -136 335970 -281422 162 128 128 0.00 0.00 16 35 119 0.33
08/28/2014 2533.30 54412 -- 335040 -- 155 125 125 0.00 0.00 16 38 114 0.34
08/29/2014 2533.30 54223 -189 334100 -279877 159 92 92 0.00 0.00 17 36 135 0.35
08/30/2014 2533.20 53953 -270 333160 -279207 169 55 55 0.00 0.00 22 36 217 0.43
08/31/2014 2533.10 53765 -188 332230 -278465 167 114 114 0.00 0.00 21 33 244 0.41
09/01/2014 2533.00 53603 -162 331290 -277687 145 126 96 r 0.00 0.00 19 36 128 0.33
09/02/2014 2533.00 53469 -134 330360 -276891 129 94 94 r 0.00 0.00 17 37 130 0.33
09/03/2014 2532.90 53309 -160 329420 -276111 159 111 111 r 0.00 0.00 21 35 141 0.33
09/04/2014 2532.80 53016 -293 361250 -275464 202 85 85 r 0.00 0.00 17 36 123 0.32
09/05/2014 2532.70 52750 -266 361250 -274800 201 98 98 0.00 0.00 15 38 111 0.32
09/06/2014 2532.60 52512 -238 361250 -274098 187 99 99 0.00 0.00 17 38 123 0.33
09/07/2014 2532.60 52354 -158 361250 -308896 131 82 82 0.00 0.00 18 38 115 0.32
09/08/2014 2532.50 52222 -132 361250 -309028 129 85 74 0.00 0.00 22 32 112 0.23
09/09/2014 2532.50 52064 -158 361250 -309186 121 72 72 0.00 0.00 17 32 145 0.31
09/10/2014 2532.40 52012 -52 361250 -309238 111 115 115 0.00 0.00 15 36 123 0.31
09/11/2014 2532.40 51933 -79 361250 -309317 115 104 104 0.00 0.00 16 37 106 0.30
09/12/2014 2532.40 51855 -78 361250 -309395 118 107 107 0.00 0.00 17 38 97 0.29
09/13/2014 2532.30 51776 -79 361250 -309474 124 113 113 0.00 0.00 18 38 101 0.30
09/14/2014 2532.30 51672 -104 361250 -309578 126 102 102 0.00 0.00 19 38 118 0.30
09/15/2014 2532.30 51567 -105 361250 -309683 120 97 -- 0.00 0.00 20 39 111 0.31
09/16/2014 2532.20 51437 -130 361250 -309813 121 85 -- 0.00 0.00 20 38 127 0.31
09/17/2014 2532.20 51307 -130 360400 -309093 58 22 -- 0.00 0.00 19 37 129 0.30
09/18/2014 -- -- -- -- -- -- -- -- -- -- -- -- -- --

Later | Latest

Warning! This data is preliminary and subject to revision.

Download Data Now Download Data Now | Show ISB Map | Plot ISB Data | 1 Month ISB Data | Real-Time ISB Data | ISB Info